sensor_id;sensor_type;location;lat;lon;timestamp;temperature;humidity
82877;DHT22;72655;47.596;7.658;2024-01-10T05:46:46;-1.90;99.90
82877;DHT22;72655;47.596;7.658;2024-01-10T05:49:13;-1.90;99.90
82877;DHT22;72655;47.596;7.658;2024-01-10T05:51:40;-1.90;99.90
82877;DHT22;72655;47.596;7.658;2024-01-10T05:54:07;-1.80;99.90
82877;DHT22;72655;47.596;7.658;2024-01-10T05:56:34;-1.70;99.90
82877;DHT22;72655;47.596;7.658;2024-01-10T05:59:01;-1.60;99.90
82877;DHT22;72655;47.596;7.658;2024-01-10T06:01:28;-1.60;99.90
82877;DHT22;72655;47.596;7.658;2024-01-10T06:03:56;-1.50;99.90
82877;DHT22;72655;47.596;7.658;2024-01-10T06:06:23;-1.50;99.90
82877;DHT22;72655;47.596;7.658;2024-01-10T06:08:50;-1.40;99.90
82877;DHT22;72655;47.596;7.658;2024-01-10T06:11:18;-1.40;99.90
82877;DHT22;72655;47.596;7.658;2024-01-10T06:13:45;-1.40;99.90
82877;DHT22;72655;47.596;7.658;2024-01-10T06:16:12;-1.40;99.90
82877;DHT22;72655;47.596;7.658;2024-01-10T06:18:39;-1.40;99.90
82877;DHT22;72655;47.596;7.658;2024-01-10T06:21:08;-1.40;99.90
82877;DHT22;72655;47.596;7.658;2024-01-10T06:23:36;-1.40;99.90
82877;DHT22;72655;47.596;7.658;2024-01-10T06:26:03;-1.50;99.90
82877;DHT22;72655;47.596;7.658;2024-01-10T06:28:30;-1.50;99.90
82877;DHT22;72655;47.596;7.658;2024-01-10T06:30:57;-1.50;99.90
82877;DHT22;72655;47.596;7.658;2024-01-10T06:33:24;-1.50;99.90
82877;DHT22;72655;47.596;7.658;2024-01-10T06:35:51;-1.50;99.90
82877;DHT22;72655;47.596;7.658;2024-01-10T06:38:20;-1.60;99.90
82877;DHT22;72655;47.596;7.658;2024-01-10T06:40:48;-1.60;99.90
82877;DHT22;72655;47.596;7.658;2024-01-10T06:43:16;-1.60;99.90
82877;DHT22;72655;47.596;7.658;2024-01-10T06:45:43;-1.60;99.90
82877;DHT22;72655;47.596;7.658;2024-01-10T06:48:10;-1.70;99.90
82877;DHT22;72655;47.596;7.658;2024-01-10T06:50:37;-1.70;99.90
82877;DHT22;72655;47.596;7.658;2024-01-10T06:53:04;-1.70;99.90
82877;DHT22;72655;47.596;7.658;2024-01-10T06:55:33;-1.80;99.90
82877;DHT22;72655;47.596;7.658;2024-01-10T06:58:00;-1.80;99.90
82877;DHT22;72655;47.596;7.658;2024-01-10T07:00:27;-1.80;99.90
82877;DHT22;72655;47.596;7.658;2024-01-10T07:02:53;-1.80;99.90
82877;DHT22;72655;47.596;7.658;2024-01-10T07:05:20;-1.80;99.90
82877;DHT22;72655;47.596;7.658;2024-01-10T07:07:47;-1.80;99.90
82877;DHT22;72655;47.596;7.658;2024-01-10T07:10:15;-1.80;99.90
82877;DHT22;72655;47.596;7.658;2024-01-10T07:12:43;-1.80;99.90
82877;DHT22;72655;47.596;7.658;2024-01-10T07:15:10;-1.80;99.90
82877;DHT22;72655;47.596;7.658;2024-01-10T07:17:38;-1.90;99.90
82877;DHT22;72655;47.596;7.658;2024-01-10T07:20:06;-1.90;99.90
82877;DHT22;72655;47.596;7.658;2024-01-10T07:22:34;-1.90;99.90
82877;DHT22;72655;47.596;7.658;2024-01-10T07:25:01;-1.90;99.90
82877;DHT22;72655;47.596;7.658;2024-01-10T07:27:28;-2.00;99.90
82877;DHT22;72655;47.596;7.658;2024-01-10T07:29:57;-2.00;99.90
82877;DHT22;72655;47.596;7.658;2024-01-10T07:32:24;-2.00;99.90
82877;DHT22;72655;47.596;7.658;2024-01-10T07:34:51;-2.00;99.90
82877;DHT22;72655;47.596;7.658;2024-01-10T07:37:18;-2.10;99.90
82877;DHT22;72655;47.596;7.658;2024-01-10T07:39:46;-2.10;99.90
82877;DHT22;72655;47.596;7.658;2024-01-10T07:42:13;-2.00;99.90
82877;DHT22;72655;47.596;7.658;2024-01-10T07:44:40;-1.90;99.90
82877;DHT22;72655;47.596;7.658;2024-01-10T07:47:08;-1.90;99.90
82877;DHT22;72655;47.596;7.658;2024-01-10T07:49:36;-1.90;99.90
82877;DHT22;72655;47.596;7.658;2024-01-10T07:52:03;-1.80;99.90
82877;DHT22;72655;47.596;7.658;2024-01-10T07:54:31;-1.80;99.90
82877;DHT22;72655;47.596;7.658;2024-01-10T07:56:58;-1.70;99.90
82877;DHT22;72655;47.596;7.658;2024-01-10T07:59:24;-1.70;99.90
82877;DHT22;72655;47.596;7.658;2024-01-10T08:01:56;-1.60;99.90
82877;DHT22;72655;47.596;7.658;2024-01-10T08:04:26;-1.60;99.90
82877;DHT22;72655;47.596;7.658;2024-01-10T08:06:53;-1.60;99.90
82877;DHT22;72655;47.596;7.658;2024-01-10T08:09:21;-1.60;99.90
82877;DHT22;72655;47.596;7.658;2024-01-10T08:11:49;-1.50;99.90
82877;DHT22;72655;47.596;7.658;2024-01-10T08:14:16;-1.50;99.90
82877;DHT22;72655;47.596;7.658;2024-01-10T08:16:43;-1.40;99.90
82877;DHT22;72655;47.596;7.658;2024-01-10T08:19:10;-1.30;99.90
82877;DHT22;72655;47.596;7.658;2024-01-10T08:21:39;-1.30;99.90
82877;DHT22;72655;47.596;7.658;2024-01-10T08:24:06;-1.30;99.90
82877;DHT22;72655;47.596;7.658;2024-01-10T08:26:34;-1.30;99.90
82877;DHT22;72655;47.596;7.658;2024-01-10T08:29:03;-1.30;99.90
82877;DHT22;72655;47.596;7.658;2024-01-10T08:31:30;-1.30;99.90
82877;DHT22;72655;47.596;7.658;2024-01-10T08:33:57;-1.20;99.90
82877;DHT22;72655;47.596;7.658;2024-01-10T08:36:24;-1.10;99.90
82877;DHT22;72655;47.596;7.658;2024-01-10T08:38:52;-1.00;99.90
82877;DHT22;72655;47.596;7.658;2024-01-10T08:41:19;-0.90;99.90
82877;DHT22;72655;47.596;7.658;2024-01-10T08:43:51;-0.80;99.90
82877;DHT22;72655;47.596;7.658;2024-01-10T08:46:23;-0.80;99.90
82877;DHT22;72655;47.596;7.658;2024-01-10T08:48:51;-0.70;99.90
82877;DHT22;72655;47.596;7.658;2024-01-10T08:51:19;-0.60;99.90
82877;DHT22;72655;47.596;7.658;2024-01-10T08:53:46;-0.60;99.90
82877;DHT22;72655;47.596;7.658;2024-01-10T08:56:15;-0.50;99.90
82877;DHT22;72655;47.596;7.658;2024-01-10T08:58:42;-0.50;99.90
82877;DHT22;72655;47.596;7.658;2024-01-10T09:01:09;-0.40;99.90
82877;DHT22;72655;47.596;7.658;2024-01-10T09:03:36;-0.30;99.90
82877;DHT22;72655;47.596;7.658;2024-01-10T09:06:05;-0.30;99.90
82877;DHT22;72655;47.596;7.658;2024-01-10T09:08:33;-0.10;99.90
82877;DHT22;72655;47.596;7.658;2024-01-10T09:11:00;0.10;99.90
82877;DHT22;72655;47.596;7.658;2024-01-10T09:13:28;0.10;99.90
82877;DHT22;72655;47.596;7.658;2024-01-10T09:15:56;0.20;99.90
82877;DHT22;72655;47.596;7.658;2024-01-10T09:18:23;0.20;99.90
82877;DHT22;72655;47.596;7.658;2024-01-10T09:20:49;0.20;99.90
82877;DHT22;72655;47.596;7.658;2024-01-10T09:23:16;0.30;99.90
82877;DHT22;72655;47.596;7.658;2024-01-10T09:25:44;0.30;99.90
82877;DHT22;72655;47.596;7.658;2024-01-10T09:28:11;0.30;99.90
82877;DHT22;72655;47.596;7.658;2024-01-10T09:30:40;0.40;99.90
82877;DHT22;72655;47.596;7.658;2024-01-10T09:33:06;0.40;99.90
82877;DHT22;72655;47.596;7.658;2024-01-10T09:35:33;0.40;99.90
82877;DHT22;72655;47.596;7.658;2024-01-10T09:38:00;0.50;99.90
82877;DHT22;72655;47.596;7.658;2024-01-10T09:40:27;0.40;99.90
82877;DHT22;72655;47.596;7.658;2024-01-10T09:42:55;0.30;99.90
82877;DHT22;72655;47.596;7.658;2024-01-10T09:45:22;0.30;99.90
82877;DHT22;72655;47.596;7.658;2024-01-10T09:47:54;0.30;99.90
82877;DHT22;72655;47.596;7.658;2024-01-10T09:50:22;0.40;99.90
82877;DHT22;72655;47.596;7.658;2024-01-10T09:52:51;0.50;99.90
82877;DHT22;72655;47.596;7.658;2024-01-10T09:55:21;0.50;99.90
82877;DHT22;72655;47.596;7.658;2024-01-10T09:57:48;0.60;99.90
82877;DHT22;72655;47.596;7.658;2024-01-10T10:00:16;0.70;99.90
82877;DHT22;72655;47.596;7.658;2024-01-10T10:02:46;0.90;99.90
82877;DHT22;72655;47.596;7.658;2024-01-10T10:05:16;1.00;99.90
82877;DHT22;72655;47.596;7.658;2024-01-10T10:07:44;1.10;99.90
82877;DHT22;72655;47.596;7.658;2024-01-10T10:10:11;1.20;99.90
82877;DHT22;72655;47.596;7.658;2024-01-10T10:12:43;1.30;99.90
82877;DHT22;72655;47.596;7.658;2024-01-10T10:15:12;1.40;99.90
82877;DHT22;72655;47.596;7.658;2024-01-10T10:17:40;1.40;99.90
82877;DHT22;72655;47.596;7.658;2024-01-10T10:20:14;1.30;99.90
82877;DHT22;72655;47.596;7.658;2024-01-10T10:23:07;1.30;99.90
82877;DHT22;72655;47.596;7.658;2024-01-10T10:25:37;1.30;99.90
82877;DHT22;72655;47.596;7.658;2024-01-10T10:28:09;1.30;99.90
82877;DHT22;72655;47.596;7.658;2024-01-10T10:30:36;1.20;99.90
82877;DHT22;72655;47.596;7.658;2024-01-10T10:33:03;1.30;99.90
82877;DHT22;72655;47.596;7.658;2024-01-10T10:35:32;1.30;99.90
82877;DHT22;72655;47.596;7.658;2024-01-10T10:37:59;1.40;99.90
82877;DHT22;72655;47.596;7.658;2024-01-10T10:40:27;1.40;99.90
82877;DHT22;72655;47.596;7.658;2024-01-10T10:42:55;1.50;99.90
82877;DHT22;72655;47.596;7.658;2024-01-10T10:45:22;1.60;99.90
82877;DHT22;72655;47.596;7.658;2024-01-10T10:47:57;1.60;99.90
82877;DHT22;72655;47.596;7.658;2024-01-10T10:50:25;1.70;99.90
82877;DHT22;72655;47.596;7.658;2024-01-10T10:52:55;1.70;99.90
82877;DHT22;72655;47.596;7.658;2024-01-10T10:55:22;1.80;99.90
82877;DHT22;72655;47.596;7.658;2024-01-10T10:57:51;1.90;99.90
82877;DHT22;72655;47.596;7.658;2024-01-10T11:00:20;1.90;99.90
82877;DHT22;72655;47.596;7.658;2024-01-10T11:02:53;2.00;99.90
82877;DHT22;72655;47.596;7.658;2024-01-10T11:05:20;2.00;99.90
82877;DHT22;72655;47.596;7.658;2024-01-10T11:07:48;2.00;99.90
82877;DHT22;72655;47.596;7.658;2024-01-10T11:10:21;2.00;99.90
82877;DHT22;72655;47.596;7.658;2024-01-10T11:13:00;2.10;99.90
82877;DHT22;72655;47.596;7.658;2024-01-10T11:15:47;2.10;99.90
82877;DHT22;72655;47.596;7.658;2024-01-10T11:18:32;2.10;99.90
82877;DHT22;72655;47.596;7.658;2024-01-10T11:21:13;2.20;99.90
82877;DHT22;72655;47.596;7.658;2024-01-10T11:23:45;2.20;99.90
82877;DHT22;72655;47.596;7.658;2024-01-10T11:26:15;2.30;99.90
82877;DHT22;72655;47.596;7.658;2024-01-10T11:28:42;2.20;99.90
82877;DHT22;72655;47.596;7.658;2024-01-10T11:31:09;2.20;99.90
82877;DHT22;72655;47.596;7.658;2024-01-10T11:33:40;2.30;99.90
82877;DHT22;72655;47.596;7.658;2024-01-10T11:36:13;2.30;99.90
82877;DHT22;72655;47.596;7.658;2024-01-10T11:38:48;2.30;99.90
82877;DHT22;72655;47.596;7.658;2024-01-10T11:41:22;2.40;99.90
82877;DHT22;72655;47.596;7.658;2024-01-10T11:44:26;2.40;99.90
82877;DHT22;72655;47.596;7.658;2024-01-10T11:46:54;2.50;99.90
82877;DHT22;72655;47.596;7.658;2024-01-10T11:49:23;2.60;99.90
82877;DHT22;72655;47.596;7.658;2024-01-10T11:51:53;2.60;99.90
82877;DHT22;72655;47.596;7.658;2024-01-10T11:54:36;2.70;99.90
82877;DHT22;72655;47.596;7.658;2024-01-10T11:57:08;2.80;99.90
82877;DHT22;72655;47.596;7.658;2024-01-10T11:59:35;2.80;99.90
82877;DHT22;72655;47.596;7.658;2024-01-10T12:02:03;2.80;99.90
82877;DHT22;72655;47.596;7.658;2024-01-10T12:04:31;2.90;99.90
82877;DHT22;72655;47.596;7.658;2024-01-10T12:06:58;2.90;99.90
82877;DHT22;72655;47.596;7.658;2024-01-10T12:09:25;2.90;99.90
82877;DHT22;72655;47.596;7.658;2024-01-10T12:11:52;3.00;99.90
82877;DHT22;72655;47.596;7.658;2024-01-10T12:14:21;3.20;99.90
82877;DHT22;72655;47.596;7.658;2024-01-10T12:16:50;3.30;99.90
82877;DHT22;72655;47.596;7.658;2024-01-10T12:19:17;3.10;99.90
82877;DHT22;72655;47.596;7.658;2024-01-10T12:21:44;3.00;99.90
82877;DHT22;72655;47.596;7.658;2024-01-10T12:24:11;2.90;99.90
82877;DHT22;72655;47.596;7.658;2024-01-10T12:26:43;2.80;99.90
82877;DHT22;72655;47.596;7.658;2024-01-10T12:29:11;2.70;99.90
82877;DHT22;72655;47.596;7.658;2024-01-10T12:31:39;2.60;99.90
82877;DHT22;72655;47.596;7.658;2024-01-10T12:34:07;2.50;99.90
82877;DHT22;72655;47.596;7.658;2024-01-10T12:36:36;2.50;99.90
82877;DHT22;72655;47.596;7.658;2024-01-10T12:39:03;2.40;99.90
82877;DHT22;72655;47.596;7.658;2024-01-10T12:41:32;2.40;99.90
82877;DHT22;72655;47.596;7.658;2024-01-10T12:44:00;2.40;99.90
82877;DHT22;72655;47.596;7.658;2024-01-10T12:46:29;2.40;99.90
82877;DHT22;72655;47.596;7.658;2024-01-10T12:49:02;2.30;99.90
82877;DHT22;72655;47.596;7.658;2024-01-10T12:51:31;2.30;99.90
82877;DHT22;72655;47.596;7.658;2024-01-10T12:53:59;2.30;99.90
82877;DHT22;72655;47.596;7.658;2024-01-10T12:56:27;2.30;99.90
82877;DHT22;72655;47.596;7.658;2024-01-10T12:58:54;2.20;99.90
82877;DHT22;72655;47.596;7.658;2024-01-10T13:01:22;2.10;99.90
82877;DHT22;72655;47.596;7.658;2024-01-10T13:03:49;2.00;99.90
82877;DHT22;72655;47.596;7.658;2024-01-10T13:06:17;1.90;99.90
82877;DHT22;72655;47.596;7.658;2024-01-10T13:08:48;1.80;99.90
82877;DHT22;72655;47.596;7.658;2024-01-10T13:11:15;1.80;99.90
82877;DHT22;72655;47.596;7.658;2024-01-10T13:13:42;1.80;99.90
82877;DHT22;72655;47.596;7.658;2024-01-10T13:16:09;1.70;99.90
82877;DHT22;72655;47.596;7.658;2024-01-10T13:18:38;1.70;99.90
82877;DHT22;72655;47.596;7.658;2024-01-10T13:21:05;1.70;99.90
82877;DHT22;72655;47.596;7.658;2024-01-10T13:23:34;1.80;99.90
82877;DHT22;72655;47.596;7.658;2024-01-10T13:26:02;1.80;99.90
82877;DHT22;72655;47.596;7.658;2024-01-10T13:28:29;1.90;99.90
82877;DHT22;72655;47.596;7.658;2024-01-10T13:30:56;1.90;99.90
82877;DHT22;72655;47.596;7.658;2024-01-10T13:33:23;2.00;99.90
82877;DHT22;72655;47.596;7.658;2024-01-10T13:35:51;2.00;99.90
82877;DHT22;72655;47.596;7.658;2024-01-10T13:38:18;2.10;99.90
82877;DHT22;72655;47.596;7.658;2024-01-10T13:40:47;2.10;99.90
82877;DHT22;72655;47.596;7.658;2024-01-10T13:43:14;2.20;99.90
82877;DHT22;72655;47.596;7.658;2024-01-10T13:45:41;2.20;99.90
82877;DHT22;72655;47.596;7.658;2024-01-10T13:48:08;2.20;99.90
82877;DHT22;72655;47.596;7.658;2024-01-10T13:50:35;2.20;99.90
82877;DHT22;72655;47.596;7.658;2024-01-10T13:53:03;2.10;99.90
82877;DHT22;72655;47.596;7.658;2024-01-10T13:55:30;2.00;99.90
82877;DHT22;72655;47.596;7.658;2024-01-10T13:57:58;2.00;99.90
82877;DHT22;72655;47.596;7.658;2024-01-10T14:00:25;1.90;99.90
82877;DHT22;72655;47.596;7.658;2024-01-10T14:02:52;1.90;99.90
82877;DHT22;72655;47.596;7.658;2024-01-10T14:05:24;1.90;99.90
82877;DHT22;72655;47.596;7.658;2024-01-10T14:07:51;1.90;99.90
82877;DHT22;72655;47.596;7.658;2024-01-10T14:10:18;1.90;99.90
82877;DHT22;72655;47.596;7.658;2024-01-10T14:12:45;1.90;99.90
82877;DHT22;72655;47.596;7.658;2024-01-10T14:15:14;1.80;99.90
82877;DHT22;72655;47.596;7.658;2024-01-10T14:17:41;1.80;99.90
82877;DHT22;72655;47.596;7.658;2024-01-10T14:20:09;1.70;99.90
82877;DHT22;72655;47.596;7.658;2024-01-10T14:22:36;1.60;99.90
82877;DHT22;72655;47.596;7.658;2024-01-10T14:25:04;1.50;99.90
82877;DHT22;72655;47.596;7.658;2024-01-10T14:27:32;1.40;99.90
82877;DHT22;72655;47.596;7.658;2024-01-10T14:29:59;1.30;99.90
82877;DHT22;72655;47.596;7.658;2024-01-10T14:32:30;1.30;99.90
82877;DHT22;72655;47.596;7.658;2024-01-10T14:34:59;1.30;99.90
82877;DHT22;72655;47.596;7.658;2024-01-10T14:37:26;1.30;99.90
82877;DHT22;72655;47.596;7.658;2024-01-10T14:39:52;1.20;99.90
82877;DHT22;72655;47.596;7.658;2024-01-10T14:42:19;1.20;99.90
82877;DHT22;72655;47.596;7.658;2024-01-10T14:44:46;1.10;99.90
82877;DHT22;72655;47.596;7.658;2024-01-10T14:47:13;1.00;99.90
82877;DHT22;72655;47.596;7.658;2024-01-10T14:49:42;1.00;99.90
82877;DHT22;72655;47.596;7.658;2024-01-10T14:52:09;1.00;99.90
82877;DHT22;72655;47.596;7.658;2024-01-10T14:54:36;0.90;99.90
82877;DHT22;72655;47.596;7.658;2024-01-10T14:57:03;0.90;99.90
82877;DHT22;72655;47.596;7.658;2024-01-10T14:59:30;0.90;99.90
82877;DHT22;72655;47.596;7.658;2024-01-10T15:01:57;0.90;99.90
82877;DHT22;72655;47.596;7.658;2024-01-10T15:04:24;0.80;99.90
82877;DHT22;72655;47.596;7.658;2024-01-10T15:06:52;0.80;99.90
82877;DHT22;72655;47.596;7.658;2024-01-10T15:09:19;0.70;99.90
82877;DHT22;72655;47.596;7.658;2024-01-10T15:11:46;0.80;99.90
82877;DHT22;72655;47.596;7.658;2024-01-10T15:14:13;0.80;99.90
82877;DHT22;72655;47.596;7.658;2024-01-10T15:16:40;0.80;99.90
82877;DHT22;72655;47.596;7.658;2024-01-10T15:19:07;0.90;99.90
82877;DHT22;72655;47.596;7.658;2024-01-10T15:21:34;1.00;99.90
82877;DHT22;72655;47.596;7.658;2024-01-10T15:24:02;1.00;99.90
82877;DHT22;72655;47.596;7.658;2024-01-10T15:26:29;1.10;99.90
82877;DHT22;72655;47.596;7.658;2024-01-10T15:28:56;1.10;99.90
82877;DHT22;72655;47.596;7.658;2024-01-10T15:31:24;1.10;99.90
82877;DHT22;72655;47.596;7.658;2024-01-10T15:33:54;1.10;99.90
82877;DHT22;72655;47.596;7.658;2024-01-10T15:36:21;1.20;99.90
82877;DHT22;72655;47.596;7.658;2024-01-10T15:38:48;1.20;99.90
82877;DHT22;72655;47.596;7.658;2024-01-10T15:41:16;1.20;99.90
82877;DHT22;72655;47.596;7.658;2024-01-10T15:43:44;1.20;99.90
82877;DHT22;72655;47.596;7.658;2024-01-10T15:46:17;1.20;99.90
82877;DHT22;72655;47.596;7.658;2024-01-10T15:48:44;1.20;99.90
82877;DHT22;72655;47.596;7.658;2024-01-10T15:51:11;1.30;99.90
82877;DHT22;72655;47.596;7.658;2024-01-10T15:53:38;1.30;99.90
82877;DHT22;72655;47.596;7.658;2024-01-10T15:56:05;1.30;99.90
82877;DHT22;72655;47.596;7.658;2024-01-10T15:58:34;1.20;99.90
82877;DHT22;72655;47.596;7.658;2024-01-10T16:01:01;1.20;99.90
82877;DHT22;72655;47.596;7.658;2024-01-10T16:03:28;1.20;99.90
82877;DHT22;72655;47.596;7.658;2024-01-10T16:05:55;1.20;99.90
82877;DHT22;72655;47.596;7.658;2024-01-10T16:08:22;1.30;99.90
82877;DHT22;72655;47.596;7.658;2024-01-10T16:10:50;1.30;99.90
82877;DHT22;72655;47.596;7.658;2024-01-10T16:13:17;1.30;99.90
82877;DHT22;72655;47.596;7.658;2024-01-10T16:15:45;1.20;99.90
82877;DHT22;72655;47.596;7.658;2024-01-10T16:18:12;1.30;99.90
82877;DHT22;72655;47.596;7.658;2024-01-10T16:20:39;1.30;99.90
82877;DHT22;72655;47.596;7.658;2024-01-10T16:23:06;1.30;99.90
82877;DHT22;72655;47.596;7.658;2024-01-10T16:25:33;1.30;99.90
82877;DHT22;72655;47.596;7.658;2024-01-10T16:28:00;1.30;99.90
82877;DHT22;72655;47.596;7.658;2024-01-10T16:30:27;1.30;99.90
82877;DHT22;72655;47.596;7.658;2024-01-10T16:32:55;1.30;99.90
82877;DHT22;72655;47.596;7.658;2024-01-10T16:35:22;1.30;99.90
82877;DHT22;72655;47.596;7.658;2024-01-10T16:37:49;1.30;99.90
82877;DHT22;72655;47.596;7.658;2024-01-10T16:40:16;1.30;99.90
82877;DHT22;72655;47.596;7.658;2024-01-10T16:42:43;1.30;99.90
82877;DHT22;72655;47.596;7.658;2024-01-10T16:45:10;1.20;99.90
82877;DHT22;72655;47.596;7.658;2024-01-10T16:47:37;1.30;99.90
82877;DHT22;72655;47.596;7.658;2024-01-10T16:50:07;1.30;99.90
82877;DHT22;72655;47.596;7.658;2024-01-10T16:52:34;1.20;99.90
82877;DHT22;72655;47.596;7.658;2024-01-10T16:55:02;1.30;99.90
82877;DHT22;72655;47.596;7.658;2024-01-10T16:57:28;1.30;99.90
82877;DHT22;72655;47.596;7.658;2024-01-10T16:59:55;1.30;99.90
82877;DHT22;72655;47.596;7.658;2024-01-10T17:02:23;1.30;99.90
82877;DHT22;72655;47.596;7.658;2024-01-10T17:04:50;1.30;99.90
82877;DHT22;72655;47.596;7.658;2024-01-10T17:07:18;1.30;99.90
82877;DHT22;72655;47.596;7.658;2024-01-10T17:09:45;1.30;99.90
82877;DHT22;72655;47.596;7.658;2024-01-10T17:12:14;1.30;99.90
82877;DHT22;72655;47.596;7.658;2024-01-10T17:14:41;1.30;99.90
82877;DHT22;72655;47.596;7.658;2024-01-10T17:17:08;1.30;99.90
82877;DHT22;72655;47.596;7.658;2024-01-10T17:19:35;1.30;99.90
82877;DHT22;72655;47.596;7.658;2024-01-10T17:22:02;1.30;99.90
82877;DHT22;72655;47.596;7.658;2024-01-10T17:24:31;1.20;99.90
82877;DHT22;72655;47.596;7.658;2024-01-10T17:26:58;1.20;99.90
82877;DHT22;72655;47.596;7.658;2024-01-10T17:29:24;1.20;99.90
82877;DHT22;72655;47.596;7.658;2024-01-10T17:31:51;1.20;99.90
82877;DHT22;72655;47.596;7.658;2024-01-10T17:34:18;1.20;99.90
82877;DHT22;72655;47.596;7.658;2024-01-10T17:36:45;1.10;99.90
82877;DHT22;72655;47.596;7.658;2024-01-10T17:39:12;1.10;99.90
82877;DHT22;72655;47.596;7.658;2024-01-10T17:41:41;1.10;99.90
82877;DHT22;72655;47.596;7.658;2024-01-10T17:44:08;1.10;99.90
82877;DHT22;72655;47.596;7.658;2024-01-10T17:46:35;1.10;99.90
82877;DHT22;72655;47.596;7.658;2024-01-10T17:49:02;1.10;99.90
82877;DHT22;72655;47.596;7.658;2024-01-10T17:51:29;1.10;99.90
82877;DHT22;72655;47.596;7.658;2024-01-10T17:53:55;1.10;99.90
82877;DHT22;72655;47.596;7.658;2024-01-10T17:56:22;1.10;99.90
82877;DHT22;72655;47.596;7.658;2024-01-10T17:58:51;1.10;99.90
82877;DHT22;72655;47.596;7.658;2024-01-10T18:01:19;1.10;99.90
82877;DHT22;72655;47.596;7.658;2024-01-10T18:03:46;1.10;99.90
82877;DHT22;72655;47.596;7.658;2024-01-10T18:06:13;1.10;99.90
82877;DHT22;72655;47.596;7.658;2024-01-10T18:08:40;1.10;99.90
82877;DHT22;72655;47.596;7.658;2024-01-10T18:11:07;1.10;99.90
82877;DHT22;72655;47.596;7.658;2024-01-10T18:13:35;1.10;99.90
82877;DHT22;72655;47.596;7.658;2024-01-10T18:16:03;1.10;99.90
82877;DHT22;72655;47.596;7.658;2024-01-10T18:18:30;1.10;99.90
82877;DHT22;72655;47.596;7.658;2024-01-10T18:20:59;1.10;99.90
82877;DHT22;72655;47.596;7.658;2024-01-10T18:23:27;1.10;99.90
82877;DHT22;72655;47.596;7.658;2024-01-10T18:25:54;1.10;99.90
82877;DHT22;72655;47.596;7.658;2024-01-10T18:28:21;1.10;99.90
82877;DHT22;72655;47.596;7.658;2024-01-10T18:30:48;1.10;99.90
82877;DHT22;72655;47.596;7.658;2024-01-10T18:33:16;1.10;99.90
82877;DHT22;72655;47.596;7.658;2024-01-10T18:35:43;1.10;99.90
82877;DHT22;72655;47.596;7.658;2024-01-10T18:38:10;1.10;99.90
82877;DHT22;72655;47.596;7.658;2024-01-10T18:40:41;1.00;99.90
82877;DHT22;72655;47.596;7.658;2024-01-10T18:43:08;1.00;99.90
82877;DHT22;72655;47.596;7.658;2024-01-10T18:45:36;1.00;99.90
82877;DHT22;72655;47.596;7.658;2024-01-10T18:48:03;1.00;99.90
82877;DHT22;72655;47.596;7.658;2024-01-10T18:50:32;0.90;99.90
82877;DHT22;72655;47.596;7.658;2024-01-10T18:52:59;0.90;99.90
82877;DHT22;72655;47.596;7.658;2024-01-10T18:55:27;0.90;99.90
